createdAt,value
2019-04-28T00:00:24.034Z,77.96
2019-04-28T00:01:24.020Z,77.86
2019-04-28T00:02:24.081Z,77.96
2019-04-28T00:03:23.990Z,79.12
2019-04-28T00:04:23.989Z,79.18
2019-04-28T00:05:23.987Z,79.39
2019-04-28T00:06:23.970Z,79.28
2019-04-28T00:07:23.993Z,79.08
2019-04-28T00:08:23.938Z,79.18
2019-04-28T00:09:23.924Z,79.18
2019-04-28T00:10:23.916Z,78.77
2019-04-28T00:11:23.914Z,79.49
2019-04-28T00:12:23.927Z,80.00
2019-04-28T00:13:23.892Z,79.25
2019-04-28T00:14:23.868Z,79.45
2019-04-28T00:15:23.864Z,78.74
2019-04-28T00:16:23.854Z,78.94
2019-04-28T00:17:23.864Z,78.84
2019-04-28T00:18:23.821Z,78.94
2019-04-28T00:19:23.809Z,78.74
2019-04-28T00:20:23.805Z,79.04
2019-04-28T00:21:23.796Z,79.04
2019-04-28T00:22:23.798Z,78.94
2019-04-28T00:23:23.775Z,78.12
2019-04-28T00:24:23.753Z,79.35
2019-04-28T00:25:23.739Z,79.14
2019-04-28T00:26:23.731Z,79.14
2019-04-28T00:27:23.746Z,79.66
2019-04-28T00:28:23.727Z,79.08
2019-04-28T00:29:23.696Z,79.25
2019-04-28T00:30:23.684Z,78.64
2019-04-28T00:31:23.675Z,79.18
2019-04-28T00:32:23.680Z,79.08
2019-04-28T00:33:23.664Z,79.49
2019-04-28T00:34:23.654Z,79.18
2019-04-28T00:35:23.630Z,79.69
2019-04-28T00:36:23.622Z,79.93
2019-04-28T00:37:23.618Z,80.44
2019-04-28T00:38:23.599Z,79.90
2019-04-28T00:39:23.590Z,80.75
2019-04-28T00:40:23.564Z,80.65
2019-04-28T00:41:23.568Z,80.75
2019-04-28T00:42:23.562Z,80.34
2019-04-28T00:43:23.541Z,80.75
2019-04-28T00:44:23.536Z,81.26
2019-04-28T00:45:23.552Z,81.67
2019-04-28T00:46:23.502Z,81.46
2019-04-28T00:47:23.515Z,81.67
2019-04-28T00:48:23.480Z,82.28
2019-04-28T00:49:23.474Z,83.00
2019-04-28T00:50:23.466Z,82.59
2019-04-28T00:51:23.457Z,82.18
2019-04-28T00:52:23.481Z,81.98
2019-04-28T00:53:23.424Z,82.49
2019-04-28T00:54:23.409Z,82.69
2019-04-28T00:55:23.403Z,83.10
2019-04-28T00:56:23.414Z,83.54
2019-04-28T00:57:23.391Z,83.24
2019-04-28T00:58:23.382Z,83.65
2019-04-28T00:59:23.357Z,83.54
2019-04-28T01:00:23.346Z,84.16
2019-04-28T01:01:23.343Z,83.34
2019-04-28T01:02:23.349Z,83.34
2019-04-28T01:03:23.977Z,83.14
2019-04-28T01:04:23.301Z,83.34
2019-04-28T01:05:23.286Z,83.54
2019-04-28T01:06:23.282Z,84.26
2019-04-28T01:07:23.279Z,84.47
2019-04-28T01:08:23.314Z,84.42
2019-04-28T01:09:23.245Z,84.74
2019-04-28T01:10:23.288Z,83.51
2019-04-28T01:11:23.221Z,83.10
2019-04-28T01:12:23.222Z,83.40
2019-04-28T01:13:23.836Z,83.00
2019-04-28T01:14:23.188Z,83.40
2019-04-28T01:15:23.179Z,83.00
2019-04-28T01:16:23.167Z,83.30
2019-04-28T01:17:23.183Z,83.85
2019-04-28T01:18:23.169Z,83.24
2019-04-28T01:19:23.161Z,83.14
2019-04-28T01:20:23.122Z,83.44
2019-04-28T01:21:23.107Z,83.54
2019-04-28T01:22:23.102Z,84.06
2019-04-28T01:23:23.116Z,83.54
2019-04-28T01:24:23.090Z,83.40
2019-04-28T01:25:23.093Z,83.92
2019-04-28T01:26:23.062Z,83.51
2019-04-28T01:27:23.045Z,83.71
2019-04-28T01:28:23.056Z,84.22
2019-04-28T01:29:23.028Z,83.61
2019-04-28T01:30:23.024Z,83.92
2019-04-28T01:31:23.025Z,83.51
2019-04-28T01:32:22.986Z,83.51
2019-04-28T01:33:22.996Z,83.81
2019-04-28T01:34:22.964Z,84.12
2019-04-28T01:35:22.956Z,83.61
2019-04-28T01:36:22.960Z,83.61
2019-04-28T01:37:22.935Z,83.30
2019-04-28T01:38:22.940Z,83.20
2019-04-28T01:39:22.916Z,83.40
2019-04-28T01:40:22.900Z,83.71
2019-04-28T01:41:22.894Z,83.92
2019-04-28T01:42:22.892Z,84.12
2019-04-28T01:43:22.898Z,83.51
2019-04-28T01:44:22.874Z,83.20
2019-04-28T01:45:22.855Z,83.40
2019-04-28T01:46:22.827Z,83.51
2019-04-28T01:47:22.830Z,83.20
2019-04-28T01:48:22.843Z,83.51
2019-04-28T01:49:22.810Z,84.22
2019-04-28T01:50:22.778Z,84.63
2019-04-28T01:51:22.776Z,83.61
2019-04-28T01:52:22.771Z,84.12
2019-04-28T01:53:22.776Z,83.61
2019-04-28T01:54:22.740Z,83.40
2019-04-28T01:55:22.733Z,83.51
2019-04-28T01:56:22.714Z,83.71
2019-04-28T01:57:22.713Z,84.16
2019-04-28T01:58:22.716Z,83.30
2019-04-28T01:59:22.716Z,83.54
2019-04-28T02:00:25.259Z,83.54
2019-04-28T02:01:22.654Z,84.16
2019-04-28T02:02:22.652Z,84.88
2019-04-28T02:03:22.644Z,84.06
2019-04-28T02:04:22.724Z,83.48
2019-04-28T02:05:22.612Z,83.95
2019-04-28T02:06:22.604Z,84.47
2019-04-28T02:07:22.588Z,83.75
2019-04-28T02:08:22.579Z,83.85
2019-04-28T02:09:22.586Z,83.85
2019-04-28T02:10:22.571Z,83.54
2019-04-28T02:11:22.544Z,83.65
2019-04-28T02:12:22.537Z,83.85
2019-04-28T02:13:22.523Z,84.16
2019-04-28T02:14:22.529Z,84.36
2019-04-28T02:15:22.508Z,84.30
2019-04-28T02:16:22.486Z,84.61
2019-04-28T02:17:22.479Z,84.91
2019-04-28T02:18:22.474Z,84.41
2019-04-28T02:19:22.476Z,84.50
2019-04-28T02:20:22.454Z,84.81
2019-04-28T02:21:22.440Z,84.41
2019-04-28T02:22:22.422Z,84.50
2019-04-28T02:23:22.412Z,84.30
2019-04-28T02:24:22.426Z,84.75
2019-04-28T02:25:22.393Z,84.55
2019-04-28T02:26:22.383Z,84.34
2019-04-28T08:38:13.924Z,83.46
2019-04-28T08:39:13.895Z,83.46
2019-04-28T08:40:14.346Z,83.52
2019-04-28T08:41:13.913Z,83.22
2019-04-28T08:42:13.853Z,83.52
2019-04-28T08:43:13.844Z,83.66
2019-04-28T08:44:13.836Z,83.36
2019-04-28T08:45:13.852Z,83.56
2019-04-28T08:46:13.837Z,82.40
2019-04-28T08:47:13.844Z,81.58
2019-04-28T08:48:13.799Z,81.38
2019-04-28T08:49:13.777Z,81.79
2019-04-28T08:50:13.782Z,80.56
2019-04-28T08:51:13.787Z,82.34
2019-04-28T08:52:13.760Z,81.17
2019-04-28T08:53:14.118Z,81.31
2019-04-28T08:54:13.778Z,80.19
2019-04-28T08:55:13.730Z,79.88
2019-04-28T08:56:13.734Z,80.12
2019-04-28T08:57:13.704Z,80.33
2019-04-28T08:58:13.724Z,79.71
2019-04-28T08:59:13.678Z,80.53
2019-04-28T09:00:13.679Z,80.74
2019-04-28T09:01:13.689Z,81.45
2019-04-28T09:02:13.642Z,80.53
2019-04-28T09:03:13.645Z,79.20
2019-04-28T09:04:15.486Z,79.57
2019-04-28T09:05:13.688Z,78.55
2019-04-28T09:06:13.681Z,79.13
2019-04-28T09:07:13.620Z,78.61
2019-04-28T09:08:13.608Z,77.80
2019-04-28T09:09:13.602Z,77.80
2019-04-28T09:10:13.742Z,77.70
2019-04-28T09:11:13.613Z,78.11
2019-04-28T09:12:13.534Z,77.59
2019-04-28T09:13:13.553Z,77.66
2019-04-28T09:14:13.524Z,77.15
2019-04-28T09:15:13.534Z,77.25
2019-04-28T09:16:13.540Z,77.86
2019-04-28T09:17:13.583Z,77.76
2019-04-28T09:18:13.469Z,77.86
2019-04-28T09:19:13.468Z,78.17
2019-04-28T09:20:13.483Z,79.09
2019-04-28T09:21:13.446Z,78.44
2019-04-28T09:22:13.455Z,77.86
2019-04-28T09:23:13.456Z,77.86
2019-04-28T09:24:13.731Z,79.16
2019-04-28T09:25:13.418Z,78.07
2019-04-28T09:26:13.397Z,79.60
2019-04-28T09:27:13.397Z,79.23
2019-04-28T09:28:13.389Z,79.13
2019-04-28T09:29:13.364Z,79.39
2019-04-28T09:30:13.366Z,79.94
2019-04-28T09:31:13.348Z,79.84
2019-04-28T09:32:13.344Z,79.94
2019-04-28T09:33:13.298Z,79.33
2019-04-28T09:34:13.298Z,79.74
2019-04-28T09:35:13.296Z,80.56
2019-04-28T09:36:13.272Z,80.52
2019-04-28T09:37:13.288Z,79.19
2019-04-28T09:38:13.305Z,79.09
2019-04-28T09:39:13.280Z,78.99
2019-04-28T09:40:13.230Z,78.31
2019-04-28T09:41:13.221Z,78.31
2019-04-28T09:42:13.240Z,78.31
2019-04-28T09:43:13.206Z,79.23
2019-04-28T09:44:13.202Z,79.33
2019-04-28T09:45:13.162Z,79.19
2019-04-28T09:46:13.152Z,77.80
2019-04-28T09:47:13.216Z,77.76
2019-04-28T09:48:13.129Z,77.86
2019-04-28T09:49:13.172Z,78.13
2019-04-28T09:50:13.119Z,77.18
2019-04-28T09:51:13.097Z,75.85
2019-04-28T09:52:13.238Z,74.73
2019-04-28T09:53:13.114Z,73.57
2019-04-28T09:54:13.064Z,73.57
2019-04-28T09:55:13.096Z,72.92
2019-04-28T09:56:13.079Z,73.33
2019-04-28T09:57:13.076Z,72.21
2019-04-28T09:58:13.035Z,72.41
2019-04-28T09:59:13.017Z,71.70
2019-04-28T10:00:13.009Z,71.39
2019-04-28T10:01:13.069Z,71.84
2019-04-28T10:02:13.098Z,72.96
2019-04-28T10:03:12.998Z,73.40
2019-04-28T10:04:12.975Z,75.00
2019-04-28T10:05:12.946Z,74.22
2019-04-28T10:06:12.952Z,73.40
2019-04-28T10:07:12.953Z,72.79
2019-04-28T10:08:12.915Z,72.89
2019-04-28T10:09:12.901Z,73.84
2019-04-28T10:10:12.884Z,73.23
2019-04-28T10:11:12.942Z,72.92
2019-04-28T10:12:12.923Z,73.13
2019-04-28T10:13:12.947Z,72.72
2019-04-28T10:14:12.854Z,72.92
2019-04-28T10:15:12.991Z,72.79
2019-04-28T10:16:12.849Z,72.69
2019-04-28T10:17:12.835Z,71.84
2019-04-28T10:18:12.822Z,71.02
2019-04-28T10:19:12.783Z,70.40
2019-04-28T10:20:12.838Z,70.48
2019-04-28T10:21:12.764Z,68.91
2019-04-28T10:22:12.755Z,68.78
2019-04-28T10:23:12.752Z,68.30
2019-04-28T10:24:12.730Z,68.17
2019-04-28T10:25:12.711Z,68.27
2019-04-28T10:26:12.714Z,69.12
2019-04-28T10:27:12.692Z,68.40
2019-04-28T10:28:12.717Z,68.78
2019-04-28T10:29:12.677Z,68.37
2019-04-28T10:30:12.721Z,68.17
2019-04-28T10:31:13.477Z,68.37
2019-04-28T10:32:12.635Z,67.35
2019-04-28T10:33:12.650Z,67.96
2019-04-28T10:34:12.622Z,67.43
2019-04-28T10:35:12.636Z,67.08
2019-04-28T10:36:12.589Z,65.83
2019-04-28T10:37:12.575Z,64.12
2019-04-28T10:38:12.590Z,64.86
2019-04-28T10:39:12.558Z,65.63
2019-04-28T10:40:12.563Z,65.97
2019-04-28T10:41:12.538Z,67.02
2019-04-28T10:42:12.601Z,68.27
2019-04-28T10:43:12.533Z,68.48
2019-04-28T10:44:12.556Z,69.80
2019-04-28T10:45:12.496Z,68.27
2019-04-28T10:46:12.484Z,68.51
2019-04-28T10:47:12.467Z,68.20
2019-04-28T10:48:12.482Z,68.33
2019-04-28T10:49:12.441Z,68.10
2019-04-28T10:50:12.431Z,68.24
2019-04-28T10:51:12.980Z,67.19
2019-04-28T10:52:12.414Z,66.24
2019-04-28T10:53:12.428Z,65.33
2019-04-28T10:54:12.452Z,65.80
2019-04-28T10:55:12.375Z,65.77
2019-04-28T10:56:12.370Z,63.64
2019-04-28T10:57:12.357Z,62.41
2019-04-28T10:58:12.375Z,62.32
2019-04-28T10:59:12.336Z,62.79
2019-04-28T11:00:12.323Z,61.88
2019-04-28T11:01:12.307Z,62.13
2019-04-28T11:02:12.302Z,59.36
2019-04-28T11:03:12.306Z,57.81
2019-04-28T11:04:12.281Z,58.49
2019-04-28T11:05:12.267Z,57.53
2019-04-28T11:06:12.661Z,56.79
2019-04-28T11:07:12.242Z,56.15
2019-04-28T11:08:12.263Z,54.64
2019-04-28T11:09:12.229Z,55.37
2019-04-28T11:10:12.308Z,55.98
2019-04-28T11:11:12.347Z,55.40
2019-04-28T11:12:12.184Z,52.76
2019-04-28T11:13:12.606Z,50.68
2019-04-28T11:14:14.188Z,48.21
2019-04-28T11:15:12.303Z,49.16
2019-04-28T11:16:12.151Z,50.07
2019-04-28T11:17:12.140Z,51.23
2019-04-28T11:18:12.166Z,51.10
2019-04-28T11:19:12.117Z,53.25
2019-04-28T11:20:12.116Z,52.67
2019-04-28T11:21:12.101Z,53.60
2019-04-28T11:22:12.088Z,51.83
2019-04-28T11:23:12.092Z,51.58
2019-04-28T11:24:12.070Z,50.65
2019-04-28T11:25:12.066Z,48.32
2019-04-28T11:26:12.035Z,48.24
2019-04-28T11:27:12.031Z,46.60
2019-04-28T11:28:12.049Z,46.62
2019-04-28T11:29:12.009Z,46.88
2019-04-28T11:30:11.991Z,45.55
2019-04-28T11:31:11.990Z,46.73
2019-04-28T11:32:11.982Z,48.81
2019-04-28T11:33:11.956Z,49.31
2019-04-28T11:34:11.964Z,47.20
2019-04-28T11:35:21.275Z,47.03
2019-04-28T11:36:12.929Z,49.01
2019-04-28T11:37:11.915Z,50.52
2019-04-28T11:38:11.999Z,52.89
2019-04-28T11:39:12.027Z,56.23
2019-04-28T11:40:12.443Z,57.50
2019-04-28T11:41:11.867Z,59.86
2019-04-28T11:42:11.883Z,58.95
2019-04-28T11:43:11.862Z,58.37
2019-04-28T11:44:11.868Z,58.67
2019-04-28T11:45:11.843Z,59.21
2019-04-28T11:46:11.821Z,57.79
2019-04-28T11:47:11.805Z,58.63
2019-04-28T11:48:11.799Z,58.94
2019-04-28T11:49:11.819Z,59.75
2019-04-28T11:50:11.796Z,59.75
2019-04-28T11:51:11.765Z,59.27
2019-04-28T11:52:11.913Z,60.05
2019-04-28T11:53:11.741Z,62.08
2019-04-28T11:54:11.752Z,59.64
2019-04-28T11:55:11.726Z,59.52
2019-04-28T11:56:11.769Z,57.46
2019-04-28T11:57:11.712Z,57.33
2019-04-28T11:58:11.682Z,55.96
2019-04-28T11:59:11.716Z,55.52
2019-04-28T12:00:11.672Z,54.92
2019-04-28T12:01:11.653Z,55.65
2019-04-28T12:02:11.662Z,55.78
2019-04-28T12:03:11.633Z,56.11
2019-04-28T12:04:11.651Z,57.64
2019-04-28T12:05:11.611Z,57.66
2019-04-28T12:06:11.596Z,58.78
2019-04-28T12:07:11.582Z,58.09
2019-04-28T12:08:11.601Z,59.75
2019-04-28T12:09:11.590Z,59.64
2019-04-28T12:10:11.548Z,60.49
2019-04-28T12:11:11.537Z,60.69
2019-04-28T12:12:11.536Z,61.71
2019-04-28T12:13:11.528Z,61.60
2019-04-28T12:14:11.549Z,62.45
2019-04-28T12:15:11.493Z,61.94
2019-04-28T12:16:11.553Z,62.35
2019-04-28T12:17:11.477Z,62.68
2019-04-28T12:18:11.469Z,63.90
2019-04-28T12:19:11.480Z,64.34
2019-04-28T12:20:11.440Z,64.64
2019-04-28T12:21:11.481Z,64.84
2019-04-28T12:22:11.421Z,64.14
2019-04-28T12:23:11.411Z,64.23
2019-04-28T12:24:11.438Z,64.34
2019-04-28T12:25:11.387Z,64.75
2019-04-28T12:26:11.373Z,64.64
2019-04-28T12:27:11.357Z,65.46
2019-04-28T12:28:11.349Z,65.97
2019-04-28T12:29:11.360Z,64.26
2019-04-28T12:30:11.346Z,65.19
2019-04-28T12:31:11.319Z,65.39
2019-04-28T12:32:11.316Z,65.52
2019-04-28T12:33:11.299Z,65.52
2019-04-28T12:34:11.311Z,66.74
2019-04-28T12:35:11.280Z,65.83
2019-04-28T12:36:11.258Z,65.92
2019-04-28T12:37:11.247Z,65.62
2019-04-28T12:38:11.241Z,65.59
2019-04-28T12:39:11.273Z,62.94
2019-04-28T12:40:11.219Z,64.29
2019-04-28T12:41:11.206Z,63.96
2019-04-28T12:42:11.195Z,62.33
2019-04-28T12:43:11.191Z,62.74
2019-04-28T12:44:11.188Z,62.84
2019-04-28T12:45:11.199Z,62.54
2019-04-28T12:46:11.146Z,62.84
2019-04-28T12:47:11.149Z,63.96
2019-04-28T12:48:11.132Z,62.51
2019-04-28T12:49:11.166Z,63.62
2019-04-28T12:50:11.113Z,62.92
2019-04-28T12:51:11.100Z,63.90
2019-04-28T12:52:11.101Z,62.48
2019-04-28T12:53:11.086Z,62.65
2019-04-28T12:54:11.166Z,62.96
2019-04-28T12:55:11.076Z,62.37
2019-04-28T12:56:11.051Z,62.98
2019-04-28T12:57:11.034Z,62.24
2019-04-28T12:58:11.073Z,63.46
2019-04-28T12:59:11.021Z,62.75
2019-04-28T13:00:11.043Z,62.98
2019-04-28T13:01:10.989Z,62.48
2019-04-28T13:02:10.971Z,63.22
2019-04-28T13:03:10.964Z,62.40
2019-04-28T13:04:10.952Z,62.20
2019-04-28T13:05:10.968Z,62.30
2019-04-28T13:06:10.926Z,62.40
2019-04-28T13:07:10.924Z,62.37
2019-04-28T13:08:10.912Z,61.87
2019-04-28T13:09:10.911Z,61.46
2019-04-28T13:10:11.095Z,61.33
2019-04-28T13:11:10.887Z,59.60
2019-04-28T13:12:10.871Z,61.94
2019-04-28T13:13:10.849Z,60.08
2019-04-28T13:14:10.843Z,59.91
2019-04-28T13:15:10.872Z,60.08
2019-04-28T13:16:10.813Z,59.06
2019-04-28T13:17:10.842Z,58.96
2019-04-28T13:18:10.803Z,57.95
2019-04-28T13:19:10.805Z,60.76
2019-04-28T13:20:10.804Z,58.70
2019-04-28T13:21:10.772Z,57.66
2019-04-28T13:22:10.759Z,58.88
2019-04-28T13:23:10.740Z,56.65
2019-04-28T13:24:10.729Z,56.95
2019-04-28T13:25:10.761Z,57.15
2019-04-28T13:26:10.857Z,56.98
2019-04-28T13:27:10.711Z,57.89
2019-04-28T13:28:10.689Z,57.21
2019-04-28T13:29:10.673Z,58.45
2019-04-28T13:30:10.735Z,59.16
2019-04-28T13:31:10.651Z,59.98
2019-04-28T13:32:10.715Z,59.77
2019-04-28T13:33:10.655Z,59.47
2019-04-28T13:34:10.689Z,58.56
2019-04-28T13:35:11.508Z,57.84
2019-04-28T13:36:15.016Z,58.04
2019-04-28T13:37:11.521Z,59.16
2019-04-28T13:38:11.553Z,58.22
2019-04-28T13:39:10.580Z,58.33
2019-04-28T13:40:10.606Z,57.81
2019-04-28T13:41:10.639Z,59.06
2019-04-28T13:42:10.526Z,59.88
2019-04-28T13:43:10.523Z,59.34
2019-04-28T13:44:10.619Z,58.04
2019-04-28T13:45:10.592Z,58.22
2019-04-28T13:46:10.483Z,58.04
2019-04-28T13:47:10.476Z,57.84
2019-04-28T13:48:10.467Z,57.84
2019-04-28T13:49:10.450Z,59.06
2019-04-28T13:50:10.502Z,59.77
2019-04-28T13:51:10.454Z,59.98
2019-04-28T13:52:10.415Z,59.47
2019-04-28T13:53:10.436Z,60.59
2019-04-28T13:54:10.421Z,61.13
2019-04-28T13:55:10.412Z,61.51
2019-04-28T13:56:10.379Z,60.69
2019-04-28T13:57:10.358Z,60.21
2019-04-28T13:58:10.344Z,59.91
2019-04-28T13:59:10.339Z,59.91
2019-04-28T14:00:10.374Z,61.83
2019-04-28T14:01:10.317Z,61.94
2019-04-28T14:02:10.304Z,62.32
2019-04-28T14:03:10.288Z,59.57
2019-04-28T14:04:10.301Z,61.60
2019-04-28T14:05:10.343Z,60.83
2019-04-28T14:06:10.287Z,60.22
2019-04-28T14:07:10.295Z,59.08
2019-04-28T14:08:10.245Z,57.84
2019-04-28T14:09:13.087Z,57.43
2019-04-28T14:10:10.221Z,57.71
2019-04-28T14:11:10.224Z,58.62
2019-04-28T14:12:10.236Z,57.37
2019-04-28T14:13:10.181Z,57.65
2019-04-28T14:14:10.196Z,56.95
2019-04-28T14:15:10.161Z,56.44
2019-04-28T14:16:10.211Z,56.34
2019-04-28T14:17:10.178Z,55.83
2019-04-28T14:18:10.193Z,55.63
2019-04-28T14:19:10.116Z,56.13
2019-04-28T14:20:10.103Z,55.83
2019-04-28T14:21:10.129Z,56.36
2019-04-28T14:22:10.087Z,57.07
2019-04-28T14:23:10.071Z,56.90
2019-04-28T14:24:10.062Z,55.98
2019-04-28T14:25:10.059Z,56.11
2019-04-28T14:26:10.059Z,56.62
2019-04-28T14:27:11.008Z,56.24
2019-04-28T14:28:10.114Z,55.76
2019-04-28T14:29:10.025Z,56.19
2019-04-28T14:30:10.002Z,57.84
2019-04-28T14:31:10.056Z,59.16
2019-04-28T14:32:09.983Z,58.96
2019-04-28T14:33:09.964Z,59.88
2019-04-28T14:34:09.997Z,59.67
2019-04-28T14:35:09.958Z,59.47
2019-04-28T14:36:09.953Z,60.69
2019-04-28T14:37:09.909Z,59.75
2019-04-28T14:38:09.902Z,59.75
2019-04-28T14:39:09.933Z,59.44
2019-04-28T14:40:09.877Z,58.02
2019-04-28T14:41:09.913Z,58.42
2019-04-28T14:42:09.916Z,58.83
2019-04-28T14:43:09.844Z,57.71
2019-04-28T14:44:09.830Z,58.80
2019-04-28T14:45:09.857Z,59.72
2019-04-28T14:46:09.835Z,57.99
2019-04-28T14:47:09.809Z,57.68
2019-04-28T14:48:09.798Z,57.68
2019-04-28T14:49:09.783Z,58.09
2019-04-28T14:50:09.781Z,59.08
2019-04-28T14:51:09.798Z,58.17
2019-04-28T14:52:09.749Z,56.21
2019-04-28T14:53:09.767Z,56.01
2019-04-28T14:54:09.801Z,56.90
2019-04-28T14:55:09.727Z,54.66
2019-04-28T14:56:09.725Z,53.67
2019-04-28T14:57:09.701Z,54.79
2019-04-28T14:58:09.698Z,54.49
2019-04-28T14:59:09.665Z,55.40
2019-04-28T15:00:09.660Z,54.86
2019-04-28T15:01:09.711Z,54.46
2019-04-28T15:02:09.679Z,54.39
2019-04-28T15:03:09.642Z,54.79
2019-04-28T15:04:09.639Z,55.71
2019-04-28T15:05:09.652Z,55.80
2019-04-28T15:06:09.657Z,55.43
2019-04-28T15:07:09.575Z,55.63
2019-04-28T15:08:09.583Z,55.63
2019-04-28T15:09:09.563Z,56.13
2019-04-28T15:10:09.547Z,56.16
2019-04-28T15:11:09.631Z,57.31
2019-04-28T15:12:09.522Z,56.90
2019-04-28T15:13:09.528Z,57.10
2019-04-28T15:14:09.598Z,57.43
2019-04-28T15:15:09.562Z,57.74
2019-04-28T15:16:09.591Z,58.22
2019-04-28T15:17:09.502Z,57.84
2019-04-28T15:18:09.506Z,59.27
2019-04-28T15:19:09.488Z,59.47
2019-04-28T15:20:09.485Z,59.88
2019-04-28T15:21:09.567Z,59.34
2019-04-28T15:22:09.422Z,57.99
2019-04-28T15:23:09.403Z,57.97
2019-04-28T15:24:09.386Z,57.64
2019-04-28T15:25:09.403Z,57.60
2019-04-28T15:26:09.413Z,57.58
2019-04-28T15:27:09.395Z,56.97
2019-04-28T15:28:09.375Z,56.16
2019-04-28T15:29:09.363Z,55.96
2019-04-28T15:30:09.327Z,56.87
2019-04-28T15:31:09.334Z,55.25
2019-04-28T15:32:09.355Z,54.53
2019-04-28T15:33:09.286Z,55.17
2019-04-28T15:34:09.281Z,55.78
2019-04-28T15:35:09.270Z,54.05
2019-04-28T15:36:09.270Z,54.46
2019-04-28T15:37:10.312Z,55.07
2019-04-28T15:38:09.267Z,54.66
2019-04-28T15:39:09.248Z,53.55
2019-04-28T15:40:09.225Z,54.99
2019-04-28T15:41:20.901Z,55.60
2019-04-28T15:42:10.233Z,54.77
2019-04-28T15:43:09.181Z,54.77
2019-04-28T15:44:09.172Z,53.55
2019-04-28T15:45:09.322Z,53.32
2019-04-28T15:46:09.156Z,53.65
2019-04-28T15:47:09.134Z,53.12
2019-04-28T15:48:09.129Z,53.65
2019-04-28T15:49:09.124Z,53.83
2019-04-28T15:50:09.151Z,52.69
2019-04-28T15:51:09.153Z,49.93
2019-04-28T15:52:09.123Z,50.43
2019-04-28T15:53:09.086Z,50.34
2019-04-28T15:54:09.051Z,51.88
2019-04-28T15:55:09.057Z,51.27
2019-04-28T15:56:09.063Z,52.31
2019-04-28T15:57:09.071Z,52.20
2019-04-28T15:58:09.011Z,52.73
2019-04-28T15:59:09.020Z,52.84
2019-04-28T16:00:08.995Z,54.28
2019-04-28T16:01:08.975Z,53.65
2019-04-28T16:02:09.006Z,53.25
2019-04-28T16:03:08.987Z,51.90
2019-04-28T16:04:08.969Z,51.12
2019-04-28T16:05:08.956Z,51.39
2019-04-28T16:06:08.964Z,52.03
2019-04-28T16:07:08.936Z,53.25
2019-04-28T16:08:08.923Z,53.78
2019-04-28T16:10:10.028Z,52.36
2019-04-28T16:11:08.883Z,52.97
2019-04-28T16:12:08.889Z,54.82
2019-04-28T16:13:08.852Z,54.08
2019-04-28T16:14:08.852Z,54.59
2019-04-28T16:15:08.843Z,54.69
2019-04-28T16:16:08.824Z,55.10
2019-04-28T16:17:08.835Z,54.69
2019-04-28T16:18:08.809Z,55.30
2019-04-28T16:19:08.786Z,55.80
2019-04-28T16:20:08.783Z,53.78
2019-04-28T16:21:08.768Z,53.67
2019-04-28T16:22:08.799Z,55.10
2019-04-28T16:23:08.759Z,54.92
2019-04-28T16:24:08.731Z,55.10
2019-04-28T16:25:08.717Z,54.90
2019-04-28T16:26:08.719Z,54.69
2019-04-28T16:27:08.729Z,54.99
2019-04-28T16:28:08.704Z,54.28
2019-04-28T16:29:08.671Z,51.95
2019-04-28T16:30:08.681Z,52.76
2019-04-28T16:31:08.653Z,52.08
2019-04-28T16:32:09.900Z,52.28
2019-04-28T16:33:08.634Z,51.77
2019-04-28T16:34:08.639Z,52.81
2019-04-28T16:35:08.613Z,52.40
2019-04-28T16:36:08.601Z,53.14
2019-04-28T16:37:08.625Z,53.45
2019-04-28T16:38:08.579Z,53.24
2019-04-28T16:39:08.573Z,54.57
2019-04-28T16:40:09.667Z,54.74
2019-04-28T16:41:08.539Z,54.44
2019-04-28T16:42:08.693Z,54.74
2019-04-28T16:43:08.525Z,54.33
2019-04-28T16:44:08.524Z,53.65
2019-04-28T16:45:08.516Z,55.07
2019-04-28T16:46:08.483Z,54.87
2019-04-28T16:47:08.490Z,54.97
2019-04-28T16:48:08.465Z,54.87
2019-04-28T16:49:08.475Z,55.51
2019-04-28T16:50:08.480Z,55.99
2019-04-28T16:51:08.461Z,55.18
2019-04-28T16:52:08.463Z,53.17
2019-04-28T16:53:08.402Z,54.57
2019-04-28T16:54:08.396Z,54.87
2019-04-28T16:55:08.384Z,55.20
2019-04-28T16:56:08.405Z,55.20
2019-04-28T16:57:08.394Z,54.66
2019-04-28T16:58:08.390Z,55.18
2019-04-28T16:59:08.340Z,55.58
2019-04-28T17:00:08.325Z,55.58
2019-04-28T17:01:08.341Z,56.29
2019-04-28T17:02:08.320Z,55.27
2019-04-28T17:03:08.342Z,55.68
2019-04-28T17:04:08.291Z,55.88
2019-04-28T17:05:08.277Z,56.39
2019-04-28T17:06:08.267Z,56.19
2019-04-28T17:07:08.251Z,56.39
2019-04-28T17:08:08.276Z,56.19
2019-04-28T17:09:08.229Z,57.21
2019-04-28T17:10:08.215Z,56.70
2019-04-28T17:11:08.213Z,56.39
2019-04-28T17:12:08.208Z,57.41
2019-04-28T17:13:08.230Z,56.01
2019-04-28T17:14:08.181Z,56.21
2019-04-28T17:15:08.178Z,57.23
2019-04-28T17:16:08.164Z,57.74
2019-04-28T17:17:08.186Z,56.73
2019-04-28T17:18:08.165Z,57.03
2019-04-28T17:19:08.128Z,57.54
2019-04-28T17:20:08.140Z,57.03
2019-04-28T17:21:08.241Z,56.21
2019-04-28T17:22:08.093Z,55.10
2019-04-28T17:23:08.101Z,54.90
2019-04-28T17:24:08.101Z,55.22
2019-04-28T17:25:08.066Z,55.53
2019-04-28T17:26:11.123Z,55.94
2019-04-28T17:27:08.036Z,55.43
2019-04-28T17:28:08.067Z,55.73
2019-04-28T17:29:08.008Z,56.24
2019-04-28T17:30:08.015Z,56.14
2019-04-28T17:31:07.994Z,56.24
2019-04-28T17:32:07.976Z,56.45
2019-04-28T17:33:08.017Z,56.04
2019-04-28T17:34:07.967Z,56.04
2019-04-28T17:35:07.952Z,57.36
2019-04-28T17:36:07.956Z,57.26
2019-04-28T17:37:07.950Z,57.77
2019-04-28T17:38:07.962Z,57.46
2019-04-28T17:39:07.898Z,57.90
2019-04-28T17:40:07.889Z,57.77
2019-04-28T17:41:07.899Z,58.30
2019-04-28T17:42:07.880Z,58.20
2019-04-28T17:43:07.894Z,58.10
2019-04-28T17:44:07.903Z,57.79
2019-04-28T17:45:07.842Z,58.00
2019-04-28T17:46:08.045Z,58.81
2019-04-28T17:47:07.830Z,59.05
2019-04-28T17:48:07.801Z,59.75
2019-04-28T17:49:07.926Z,59.75
2019-04-28T17:50:07.785Z,60.06
2019-04-28T17:51:07.771Z,59.66
2019-04-28T17:52:07.781Z,59.75
2019-04-28T17:53:07.760Z,59.25
2019-04-28T17:54:07.774Z,60.16
2019-04-28T17:55:07.729Z,59.96
2019-04-28T17:56:07.728Z,60.37
2019-04-28T17:57:07.714Z,60.68
2019-04-28T17:58:07.700Z,60.37
2019-04-28T17:59:07.738Z,59.86
2019-04-28T18:00:07.692Z,59.68
2019-04-28T18:01:07.664Z,59.78
2019-04-28T18:02:07.651Z,60.09
2019-04-28T18:03:07.640Z,60.09
2019-04-28T18:04:07.674Z,60.50
2019-04-28T18:05:07.613Z,60.60
2019-04-28T18:06:17.533Z,61.00
2019-04-28T18:07:08.586Z,61.21
2019-04-28T18:08:20.467Z,61.61
2019-04-28T18:09:08.598Z,61.41
2019-04-28T18:10:07.588Z,61.31
2019-04-28T18:11:07.537Z,61.61
2019-04-28T18:12:07.533Z,61.54
2019-04-28T18:13:07.527Z,61.54
2019-04-28T18:14:07.516Z,61.95
2019-04-28T18:15:07.523Z,61.82
2019-04-28T18:16:07.486Z,62.74
2019-04-28T18:17:07.529Z,62.63
2019-04-28T18:18:07.478Z,62.84
2019-04-28T18:19:07.484Z,62.74
2019-04-28T18:20:07.467Z,62.56
2019-04-28T18:21:07.433Z,62.87
2019-04-28T18:22:07.428Z,63.38
2019-04-28T18:23:07.410Z,63.28
2019-04-28T18:24:07.453Z,63.79
2019-04-28T18:25:07.385Z,64.20
2019-04-28T18:26:07.436Z,63.38
2019-04-28T18:27:07.390Z,64.29
2019-04-28T18:28:07.347Z,63.99
2019-04-28T18:29:07.365Z,64.09
2019-04-28T18:30:07.327Z,64.29
2019-04-28T18:31:07.354Z,64.40
2019-04-28T18:32:07.306Z,63.71
2019-04-28T18:33:07.309Z,64.02
2019-04-28T18:34:07.350Z,64.43
2019-04-28T18:35:07.272Z,64.53
2019-04-28T18:36:07.278Z,64.53
2019-04-28T18:37:07.252Z,65.34
2019-04-28T18:38:07.243Z,64.73
2019-04-28T18:39:07.231Z,64.73
2019-04-28T18:40:07.222Z,64.94
2019-04-28T18:41:07.247Z,65.65
2019-04-28T18:42:07.207Z,65.55
2019-04-28T18:43:07.184Z,65.45
2019-04-28T18:44:07.215Z,65.68
2019-04-28T18:45:07.144Z,65.75
2019-04-28T18:46:07.144Z,65.65
2019-04-28T18:47:07.170Z,66.36
2019-04-28T18:48:07.136Z,66.16
2019-04-28T18:49:07.140Z,66.50
2019-04-28T18:50:07.232Z,66.06
2019-04-28T18:51:07.079Z,66.70
2019-04-28T18:52:07.077Z,67.32
2019-04-28T18:53:07.061Z,67.18
2019-04-28T18:54:07.106Z,67.18
2019-04-28T18:55:07.110Z,67.79
2019-04-28T18:56:07.055Z,66.97
2019-04-28T18:57:07.615Z,67.38
2019-04-28T18:58:07.015Z,67.08
2019-04-28T18:59:07.019Z,67.38
2019-04-28T19:00:07.036Z,67.59
2019-04-28T19:01:07.016Z,67.99
2019-04-28T19:02:06.981Z,67.38
2019-04-28T19:03:06.963Z,68.23
2019-04-28T19:04:06.963Z,68.40